createdAt,value
2018-04-12T00:00:43.769Z,13.93
2018-04-12T00:01:43.697Z,13.89
2018-04-12T00:02:43.627Z,13.90
2018-04-12T00:03:43.543Z,13.85
2018-04-12T00:04:43.470Z,13.89
2018-04-12T00:05:43.390Z,13.86
2018-04-12T00:06:43.319Z,13.86
2018-04-12T00:07:43.238Z,13.89
2018-04-12T00:08:43.163Z,13.85
2018-04-12T00:09:43.089Z,13.87
2018-04-12T00:10:43.012Z,13.89
2018-04-12T00:11:42.946Z,13.77
2018-04-12T00:12:42.860Z,13.77
2018-04-12T00:13:42.786Z,13.83
2018-04-12T00:14:42.708Z,13.75
2018-04-12T00:15:42.646Z,13.75
2018-04-12T00:16:42.558Z,13.74
2018-04-12T00:17:42.481Z,13.75
2018-04-12T00:18:42.405Z,13.70
2018-04-12T00:19:42.331Z,13.71
2018-04-12T00:20:42.254Z,13.72
2018-04-12T00:21:42.182Z,13.67
2018-04-12T00:22:42.104Z,13.72
2018-04-12T00:23:42.027Z,13.70
2018-04-12T00:24:41.949Z,13.68
2018-04-12T00:25:41.872Z,13.67
2018-04-12T00:26:41.801Z,13.59
2018-04-12T00:27:41.721Z,13.68
2018-04-12T00:28:41.645Z,13.60
2018-04-12T00:29:41.572Z,13.63
2018-04-12T00:30:41.500Z,13.68
2018-04-12T00:31:41.417Z,13.67
2018-04-12T00:32:41.344Z,13.70
2018-04-12T00:33:41.310Z,13.65
2018-04-12T00:34:41.197Z,13.63
2018-04-12T00:35:41.112Z,13.70
2018-04-12T00:36:41.039Z,13.71
2018-04-12T00:37:40.965Z,13.70
2018-04-12T00:38:40.885Z,13.65
2018-04-12T00:39:40.811Z,13.68
2018-04-12T00:40:40.734Z,13.63
2018-04-12T00:41:40.663Z,13.59
2018-04-12T00:42:40.581Z,13.53
2018-04-12T00:43:40.511Z,13.53
2018-04-12T00:44:40.427Z,13.49
2018-04-12T00:45:40.354Z,13.57
2018-04-12T00:46:40.278Z,13.57
2018-04-12T00:47:40.203Z,13.46
2018-04-12T00:48:40.125Z,13.46
2018-04-12T00:49:40.050Z,13.42
2018-04-12T00:50:39.973Z,13.42
2018-04-12T00:51:39.900Z,13.28
2018-04-12T00:52:39.820Z,13.42
2018-04-12T00:53:39.757Z,13.42
2018-04-12T00:54:39.674Z,13.41
2018-04-12T00:55:39.592Z,13.41
2018-04-12T00:56:39.513Z,13.39
2018-04-12T00:57:39.441Z,13.42
2018-04-12T00:58:39.366Z,13.31
2018-04-12T00:59:39.291Z,13.39
2018-04-12T01:00:39.212Z,13.41
2018-04-12T01:01:39.136Z,13.41
2018-04-12T01:02:39.061Z,13.41
2018-04-12T01:03:38.992Z,13.37
2018-04-12T01:04:38.919Z,13.33
2018-04-12T01:05:38.834Z,13.35
2018-04-12T01:06:38.756Z,13.30
2018-04-12T01:07:38.682Z,13.38
2018-04-12T01:08:38.605Z,13.23
2018-04-12T01:09:38.545Z,13.19
2018-04-12T01:10:38.454Z,13.23
2018-04-12T01:11:38.385Z,13.19
2018-04-12T01:12:38.299Z,13.25
2018-04-12T01:13:38.224Z,13.31
2018-04-12T01:14:38.147Z,13.25
2018-04-12T01:15:38.076Z,13.30
2018-04-12T01:16:37.994Z,13.35
2018-04-12T01:17:37.918Z,13.38
2018-04-12T01:18:37.842Z,13.30
2018-04-12T01:19:37.770Z,13.38
2018-04-12T01:20:37.701Z,13.37
2018-04-12T01:21:37.616Z,13.37
2018-04-12T01:22:37.538Z,13.38
2018-04-12T01:23:37.462Z,13.35
2018-04-12T01:24:37.387Z,13.31
2018-04-12T01:25:37.318Z,13.35
2018-04-12T01:26:37.230Z,13.35
2018-04-12T01:27:37.155Z,13.35
2018-04-12T01:28:37.077Z,13.38
2018-04-12T01:29:37.003Z,13.25
2018-04-12T01:30:36.927Z,13.28
2018-04-12T01:31:36.853Z,13.25
2018-04-12T01:32:36.775Z,13.22
2018-04-12T01:33:36.698Z,13.33
2018-04-12T01:34:36.641Z,13.20
2018-04-12T01:35:36.546Z,13.19
2018-04-12T01:36:36.474Z,13.22
2018-04-12T01:37:36.395Z,13.31
2018-04-12T01:38:36.323Z,13.30
2018-04-12T01:39:36.240Z,13.27
2018-04-12T01:40:36.166Z,13.22
2018-04-12T01:41:36.088Z,13.30
2018-04-12T01:42:36.011Z,13.27
2018-04-12T01:43:35.985Z,13.33
2018-04-12T01:44:35.861Z,13.23
2018-04-12T01:45:35.783Z,13.25
2018-04-12T01:46:35.706Z,13.23
2018-04-12T01:47:35.628Z,13.30
2018-04-12T01:48:35.553Z,13.27
2018-04-12T01:49:35.474Z,13.27
2018-04-12T01:50:35.398Z,13.25
2018-04-12T01:51:35.324Z,13.20
2018-04-12T01:52:35.246Z,13.28
2018-04-12T01:53:35.189Z,13.19
2018-04-12T01:54:35.093Z,13.28
2018-04-12T01:55:35.021Z,13.25
2018-04-12T01:56:34.942Z,13.22
2018-04-12T01:57:34.864Z,13.23
2018-04-12T01:58:34.787Z,13.23
2018-04-12T01:59:34.711Z,13.22
2018-04-12T02:00:34.637Z,13.20
2018-04-12T02:01:34.561Z,13.20
2018-04-12T02:02:34.486Z,13.19
2018-04-12T02:03:34.408Z,13.23
2018-04-12T02:04:34.334Z,13.20
2018-04-12T02:05:34.253Z,13.27
2018-04-12T02:06:34.188Z,13.22
2018-04-12T02:07:34.108Z,13.28
2018-04-12T02:08:34.043Z,13.22
2018-04-12T02:09:33.956Z,13.22
2018-04-12T02:10:33.875Z,13.27
2018-04-12T02:11:33.796Z,13.30
2018-04-12T02:12:33.722Z,13.30
2018-04-12T02:13:33.646Z,13.25
2018-04-12T02:14:33.567Z,13.28
2018-04-12T02:15:33.503Z,13.22
2018-04-12T02:16:33.415Z,13.30
2018-04-12T02:17:33.342Z,13.22
2018-04-12T02:18:33.263Z,13.27
2018-04-12T02:19:33.192Z,13.37
2018-04-12T02:20:33.115Z,13.22
2018-04-12T02:21:33.034Z,13.30
2018-04-12T02:22:32.960Z,13.28
2018-04-12T02:23:32.884Z,13.31
2018-04-12T02:24:32.808Z,13.39
2018-04-12T02:25:32.730Z,13.35
2018-04-12T02:26:32.650Z,13.33
2018-04-12T02:27:32.597Z,13.47
2018-04-12T02:28:32.498Z,13.42
2018-04-12T02:29:32.424Z,13.49
2018-04-12T02:30:32.346Z,13.53
2018-04-12T02:31:32.271Z,13.52
2018-04-12T02:32:32.194Z,13.50
2018-04-12T02:33:32.127Z,13.60
2018-04-12T02:34:32.041Z,13.67
2018-04-12T02:35:31.966Z,13.63
2018-04-12T02:36:31.890Z,13.68
2018-04-12T02:37:31.814Z,13.74
2018-04-12T02:38:31.742Z,13.68
2018-04-12T02:39:31.662Z,13.78
2018-04-12T02:40:31.587Z,13.75
2018-04-12T02:41:31.507Z,13.75
2018-04-12T02:42:31.433Z,13.74
2018-04-12T02:43:31.357Z,13.79
2018-04-12T02:44:31.279Z,13.77
2018-04-12T02:45:31.206Z,13.85
2018-04-12T02:46:31.128Z,13.83
2018-04-12T02:47:31.051Z,13.81
2018-04-12T02:48:30.980Z,13.87
2018-04-12T02:49:30.908Z,13.90
2018-04-12T02:50:30.824Z,13.95
2018-04-12T02:51:30.749Z,13.92
2018-04-12T02:52:30.672Z,13.96
2018-04-12T02:53:30.594Z,13.93
2018-04-12T02:54:30.517Z,14.00
2018-04-12T02:55:30.443Z,14.04
2018-04-12T02:56:30.367Z,14.04
2018-04-12T02:57:30.291Z,13.95
2018-04-12T02:58:30.215Z,14.08
2018-04-12T02:59:30.143Z,14.07
2018-04-12T03:00:30.061Z,14.10
2018-04-12T03:01:29.986Z,14.04
2018-04-12T03:02:29.910Z,14.07
2018-04-12T03:03:29.838Z,14.05
2018-04-12T03:04:29.769Z,14.07
2018-04-12T03:05:29.681Z,14.11
2018-04-12T03:06:29.605Z,14.12
2018-04-12T03:07:29.529Z,14.10
2018-04-12T03:08:29.456Z,14.12
2018-04-12T03:09:29.383Z,14.10
2018-04-12T03:10:29.300Z,14.26
2018-04-12T03:11:29.225Z,14.20
2018-04-12T03:12:29.147Z,14.28
2018-04-12T03:13:29.077Z,14.29
2018-04-12T03:14:29.008Z,14.25
2018-04-12T03:15:28.921Z,14.28
2018-04-12T03:16:28.843Z,14.35
2018-04-12T03:17:28.771Z,14.30
2018-04-12T03:18:28.695Z,14.35
2018-04-12T03:19:28.619Z,14.32
2018-04-12T03:20:28.542Z,14.30
2018-04-12T03:21:28.473Z,14.29
2018-04-12T03:22:28.389Z,14.26
2018-04-12T03:23:28.325Z,14.29
2018-04-12T03:24:28.241Z,14.29
2018-04-12T03:25:28.182Z,14.28
2018-04-12T03:26:28.092Z,14.30
2018-04-12T03:27:28.010Z,14.47
2018-04-12T03:28:27.932Z,14.37
2018-04-12T03:29:27.859Z,14.37
2018-04-12T03:30:27.792Z,14.37
2018-04-12T03:31:27.707Z,14.33
2018-04-12T03:32:27.632Z,14.40
2018-04-12T03:33:27.556Z,14.37
2018-04-12T03:34:27.480Z,14.43
2018-04-12T03:35:27.404Z,14.40
2018-04-12T03:36:27.329Z,14.35
2018-04-12T03:37:27.253Z,14.43
2018-04-12T03:38:27.177Z,14.50
2018-04-12T03:39:27.102Z,14.45
2018-04-12T03:40:27.025Z,14.48
2018-04-12T03:41:26.954Z,14.48
2018-04-12T03:42:26.872Z,14.45
2018-04-12T03:43:26.798Z,14.47
2018-04-12T03:44:27.395Z,14.45
2018-04-12T03:45:26.645Z,14.47
2018-04-12T03:46:26.585Z,14.48
2018-04-12T03:47:26.495Z,14.50
2018-04-12T03:48:26.417Z,14.45
2018-04-12T03:49:26.419Z,14.58
2018-04-12T03:50:26.288Z,14.51
2018-04-12T03:51:26.191Z,14.47
2018-04-12T03:52:26.117Z,14.54
2018-04-12T03:53:26.038Z,14.53
2018-04-12T03:54:25.964Z,14.51
2018-04-12T03:55:25.888Z,14.55
2018-04-12T03:56:25.814Z,14.53
2018-04-12T03:57:25.736Z,14.51
2018-04-12T03:58:25.660Z,14.51
2018-04-12T03:59:25.630Z,14.51
2018-04-12T04:00:25.513Z,14.63
2018-04-12T04:01:25.435Z,14.59
2018-04-12T04:02:25.357Z,14.60
2018-04-12T04:03:25.283Z,14.66
2018-04-12T04:04:25.207Z,14.66
2018-04-12T04:05:25.131Z,14.50
2018-04-12T04:06:25.054Z,14.50
2018-04-12T04:07:25.027Z,14.63
2018-04-12T04:08:24.902Z,14.68
2018-04-12T04:09:24.831Z,14.58
2018-04-12T04:10:24.762Z,14.60
2018-04-12T04:11:24.677Z,14.62
2018-04-12T04:12:24.598Z,14.65
2018-04-12T04:13:24.524Z,14.63
2018-04-12T04:14:24.462Z,14.59
2018-04-12T04:15:24.402Z,14.66
2018-04-12T04:16:24.296Z,14.65
2018-04-12T04:17:24.221Z,14.69
2018-04-12T04:18:24.145Z,14.66
2018-04-12T04:19:24.069Z,14.60
2018-04-12T04:20:23.998Z,14.65
2018-04-12T04:21:23.918Z,14.63
2018-04-12T04:22:23.843Z,14.59
2018-04-12T04:23:23.770Z,14.62
2018-04-12T04:24:23.692Z,14.63
2018-04-12T04:25:23.642Z,14.68
2018-04-12T04:26:23.539Z,14.70
2018-04-12T04:27:23.463Z,14.73
2018-04-12T04:28:23.390Z,14.66
2018-04-12T04:29:23.315Z,14.63
2018-04-12T04:30:23.239Z,14.73
2018-04-12T04:31:23.163Z,14.73
2018-04-12T04:32:23.091Z,14.77
2018-04-12T04:33:23.017Z,14.79
2018-04-12T04:34:22.936Z,14.77
2018-04-12T04:35:22.866Z,14.77
2018-04-12T04:36:22.787Z,14.78
2018-04-12T04:37:22.709Z,14.81
2018-04-12T04:38:22.633Z,14.84
2018-04-12T04:39:22.560Z,14.86
2018-04-12T04:40:22.483Z,14.86
2018-04-12T04:41:22.409Z,14.84
2018-04-12T04:42:22.333Z,14.85
2018-04-12T04:43:22.259Z,14.88
2018-04-12T04:44:22.182Z,14.73
2018-04-12T04:45:22.104Z,14.86
2018-04-12T04:46:22.035Z,14.85
2018-04-12T04:47:21.954Z,14.85
2018-04-12T04:48:21.877Z,14.85
2018-04-12T04:49:21.805Z,14.86
2018-04-12T04:50:21.729Z,14.91
2018-04-12T04:51:21.659Z,14.88
2018-04-12T04:52:21.589Z,14.84
2018-04-12T04:53:21.500Z,14.81
2018-04-12T04:54:21.427Z,14.89
2018-04-12T04:55:21.352Z,14.85
2018-04-12T04:56:21.273Z,14.88
2018-04-12T04:57:21.197Z,14.81
2018-04-12T04:58:21.123Z,14.88
2018-04-12T04:59:21.048Z,14.92
2018-04-12T05:00:20.971Z,14.91
2018-04-12T05:01:20.897Z,14.94
2018-04-12T05:02:20.820Z,14.91
2018-04-12T05:03:20.745Z,14.96
2018-04-12T05:04:20.669Z,14.96
2018-04-12T05:05:20.596Z,14.99
2018-04-12T05:06:20.541Z,15.02
2018-04-12T05:07:20.482Z,15.04
2018-04-12T05:08:20.370Z,15.02
2018-04-12T05:09:20.291Z,15.06
2018-04-12T05:10:20.219Z,15.09
2018-04-12T05:11:20.141Z,15.11
2018-04-12T05:12:20.074Z,15.17
2018-04-12T05:13:20.028Z,15.17
2018-04-12T05:14:19.916Z,15.18
2018-04-12T05:15:19.837Z,15.22
2018-04-12T05:16:19.764Z,15.21
2018-04-12T05:17:19.685Z,15.19
2018-04-12T05:18:19.619Z,15.25
2018-04-12T05:19:19.540Z,15.24
2018-04-12T05:20:19.478Z,15.24
2018-04-12T05:21:19.388Z,15.17
2018-04-12T05:22:19.309Z,15.24
2018-04-12T05:23:19.233Z,15.24
2018-04-12T05:24:19.159Z,15.29
2018-04-12T05:25:19.090Z,15.33
2018-04-12T05:26:19.008Z,15.36
2018-04-12T05:27:18.947Z,15.43
2018-04-12T05:28:18.863Z,15.42
2018-04-12T05:29:18.781Z,15.49
2018-04-12T05:30:18.708Z,15.44
2018-04-12T05:31:18.673Z,15.46
2018-04-12T05:32:18.555Z,15.44
2018-04-12T05:33:18.479Z,15.55
2018-04-12T05:34:18.404Z,15.49
2018-04-12T05:35:18.355Z,15.47
2018-04-12T05:36:18.254Z,15.49
2018-04-12T05:37:18.178Z,15.51
2018-04-12T05:38:18.103Z,15.54
2018-04-12T05:39:18.027Z,15.47
2018-04-12T05:40:17.951Z,15.55
2018-04-12T05:41:17.877Z,15.58
2018-04-12T05:42:18.341Z,15.52
2018-04-12T05:43:17.744Z,15.58
2018-04-12T05:44:17.651Z,15.58
2018-04-12T05:45:17.577Z,15.61
2018-04-12T05:46:17.499Z,15.64
2018-04-12T05:47:17.424Z,15.64
2018-04-12T05:48:17.351Z,15.64
2018-04-12T05:49:17.273Z,15.65
2018-04-12T05:50:17.200Z,15.73
2018-04-12T05:51:17.122Z,15.70
2018-04-12T05:52:17.049Z,15.65
2018-04-12T05:53:16.977Z,15.64
2018-04-12T05:54:16.897Z,15.64
2018-04-12T05:55:16.824Z,15.59
2018-04-12T05:56:16.749Z,15.73
2018-04-12T05:57:16.673Z,15.64
2018-04-12T05:58:16.616Z,15.72
2018-04-12T05:59:16.523Z,15.68
2018-04-12T06:00:16.445Z,15.68
2018-04-12T06:01:16.370Z,15.70
2018-04-12T06:02:16.296Z,15.75
2018-04-12T06:03:16.239Z,15.68
2018-04-12T06:04:16.147Z,15.68
2018-04-12T06:05:16.072Z,15.72
2018-04-12T06:06:15.995Z,15.73
2018-04-12T06:07:15.920Z,15.58
2018-04-12T06:08:15.847Z,15.73
2018-04-12T06:09:15.778Z,15.70
2018-04-12T06:10:15.697Z,15.68
2018-04-12T06:11:15.620Z,15.76
2018-04-12T06:12:15.547Z,15.67
2018-04-12T06:13:15.536Z,15.77
2018-04-12T06:14:16.016Z,15.76
2018-04-12T06:15:15.350Z,15.76
2018-04-12T06:16:15.245Z,15.70
2018-04-12T06:17:15.172Z,15.70
2018-04-12T06:18:15.101Z,15.70
2018-04-12T06:19:15.028Z,15.68
2018-04-12T06:20:14.952Z,15.68
2018-04-12T06:21:14.872Z,15.68
2018-04-12T06:22:14.800Z,15.75
2018-04-12T06:23:14.721Z,15.82
2018-04-12T06:24:14.644Z,15.80
2018-04-12T06:25:14.590Z,15.76
2018-04-12T06:26:14.497Z,15.79
2018-04-12T06:27:14.421Z,15.77
2018-04-12T06:28:14.361Z,15.84
2018-04-12T06:29:14.285Z,15.91
2018-04-12T06:30:14.250Z,15.90
2018-04-12T06:31:14.126Z,15.95
2018-04-12T06:32:14.047Z,16.00
2018-04-12T06:33:13.972Z,16.09
2018-04-12T06:34:13.897Z,16.05
2018-04-12T06:35:13.821Z,16.12
2018-04-12T06:36:13.748Z,16.16
2018-04-12T06:37:13.671Z,16.13
2018-04-12T06:38:13.597Z,16.16
2018-04-12T06:39:13.522Z,16.21
2018-04-12T06:40:13.448Z,16.24
2018-04-12T06:41:13.372Z,16.24
2018-04-12T06:42:13.304Z,16.31
2018-04-12T06:43:13.232Z,16.28
2018-04-12T06:44:13.155Z,16.32
2018-04-12T06:45:13.076Z,16.38
2018-04-12T06:46:12.998Z,16.36
2018-04-12T06:47:12.926Z,16.38
2018-04-12T06:48:12.869Z,16.39
2018-04-12T06:49:12.780Z,16.46
2018-04-12T06:50:12.701Z,16.51
2018-04-12T06:51:12.626Z,16.61
2018-04-12T06:52:12.551Z,16.58
2018-04-12T06:53:12.478Z,16.57
2018-04-12T06:54:12.404Z,16.54
2018-04-12T06:55:12.327Z,16.58
2018-04-12T06:56:12.264Z,16.66
2018-04-12T06:57:12.177Z,16.58
2018-04-12T06:58:12.121Z,16.75
2018-04-12T06:59:12.032Z,16.72
2018-04-12T07:00:11.957Z,16.78
2018-04-12T07:01:11.884Z,16.83
2018-04-12T07:02:11.807Z,16.84
2018-04-12T07:03:11.778Z,16.79
2018-04-12T07:04:11.656Z,16.78
2018-04-12T07:05:11.581Z,16.78
2018-04-12T07:06:11.506Z,16.79
2018-04-12T07:07:11.436Z,16.78
2018-04-12T07:08:11.362Z,16.75
2018-04-12T07:09:11.283Z,16.74
2018-04-12T07:10:11.212Z,16.72
2018-04-12T07:11:11.139Z,16.74
2018-04-12T07:12:11.064Z,16.78
2018-04-12T07:13:11.003Z,16.76
2018-04-12T07:14:10.911Z,16.74
2018-04-12T07:15:10.837Z,16.71
2018-04-12T07:16:10.768Z,16.75
2018-04-12T07:17:10.688Z,16.81
2018-04-12T07:18:10.629Z,16.84
2018-04-12T07:19:10.550Z,16.84
2018-04-12T07:20:10.464Z,16.94
2018-04-12T07:21:10.390Z,16.87
2018-04-12T07:22:10.341Z,17.02
2018-04-12T07:23:10.244Z,17.02
2018-04-12T07:24:10.168Z,17.08
2018-04-12T07:25:10.095Z,17.20
2018-04-12T07:26:10.021Z,17.26
2018-04-12T07:27:09.961Z,17.24
2018-04-12T07:28:09.869Z,17.26
2018-04-12T07:29:09.797Z,17.34
2018-04-12T07:30:09.763Z,17.42
2018-04-12T07:31:09.654Z,17.41
2018-04-12T07:32:09.585Z,17.57
2018-04-12T07:33:09.502Z,17.56
2018-04-12T07:34:09.425Z,17.68
2018-04-12T07:35:09.406Z,17.60
2018-04-12T07:36:09.277Z,17.72
2018-04-12T07:37:09.217Z,17.78
2018-04-12T07:38:09.131Z,17.67
2018-04-12T07:39:09.057Z,17.72
2018-04-12T07:40:08.986Z,17.72
2018-04-12T07:41:08.914Z,17.80
2018-04-12T07:42:08.836Z,17.80
2018-04-12T07:43:08.762Z,17.86
2018-04-12T07:44:08.687Z,17.92
2018-04-12T07:45:08.628Z,17.97
2018-04-12T07:46:08.558Z,17.94
2018-04-12T07:47:08.465Z,17.97
2018-04-12T07:48:08.391Z,18.04
2018-04-12T07:49:08.320Z,18.03
2018-04-12T07:50:08.261Z,18.00
2018-04-12T07:51:08.172Z,18.18
2018-04-12T07:52:08.099Z,18.13
2018-04-12T07:53:08.024Z,18.16
2018-04-12T07:54:07.952Z,18.15
2018-04-12T07:55:07.883Z,18.18
2018-04-12T07:56:07.805Z,18.08
2018-04-12T07:57:07.730Z,18.20
2018-04-12T07:58:07.656Z,18.28
2018-04-12T07:59:07.583Z,18.26
2018-04-12T08:00:07.518Z,18.33
2018-04-12T08:01:07.436Z,18.34
2018-04-12T08:02:07.418Z,18.33
2018-04-12T08:03:07.294Z,18.35
2018-04-12T08:04:07.217Z,18.43
2018-04-12T08:05:07.142Z,18.53
2018-04-12T08:06:07.069Z,18.52
2018-04-12T08:07:06.997Z,18.56
2018-04-12T08:08:06.923Z,18.62
2018-04-12T08:09:06.857Z,18.62
2018-04-12T08:10:06.776Z,18.66
2018-04-12T08:11:06.703Z,18.66
2018-04-12T08:12:06.631Z,18.65
2018-04-12T08:13:06.557Z,18.81
2018-04-12T08:14:06.483Z,18.75
2018-04-12T08:15:06.413Z,18.74
2018-04-12T08:16:06.335Z,18.80
2018-04-12T08:17:06.265Z,18.80
2018-04-12T08:18:06.219Z,18.90
2018-04-12T08:19:06.123Z,18.93
2018-04-12T08:20:06.045Z,18.93
2018-04-12T08:21:05.979Z,19.00
2018-04-12T08:22:05.903Z,18.96
2018-04-12T08:23:05.829Z,18.86
2018-04-12T08:24:05.753Z,19.02
2018-04-12T08:25:05.686Z,19.07
2018-04-12T08:26:05.610Z,19.12
2018-04-12T08:27:05.540Z,19.22
2018-04-12T08:28:05.464Z,19.27
2018-04-12T08:29:05.389Z,19.29
2018-04-12T08:30:05.319Z,19.27
2018-04-12T08:31:05.247Z,19.31
2018-04-12T08:32:05.174Z,19.48
2018-04-12T08:33:05.105Z,19.44
2018-04-12T08:34:05.038Z,19.49
2018-04-12T08:35:04.956Z,19.52
2018-04-12T08:36:04.895Z,19.56
2018-04-12T08:37:04.815Z,19.54
2018-04-12T08:38:04.751Z,19.54
2018-04-12T08:39:04.666Z,19.47
2018-04-12T08:40:04.594Z,19.41
2018-04-12T08:41:04.572Z,19.40
2018-04-12T08:42:04.450Z,19.40
2018-04-12T08:43:04.380Z,19.36
2018-04-12T08:44:04.302Z,19.45
2018-04-12T08:45:04.234Z,19.37
2018-04-12T08:46:04.158Z,19.34
2018-04-12T08:47:04.087Z,19.29
2018-04-12T08:48:04.013Z,19.26
2018-04-12T08:49:03.950Z,19.30
2018-04-12T08:50:03.872Z,19.29
2018-04-12T08:51:03.797Z,19.29
2018-04-12T08:52:03.786Z,19.24
2018-04-12T08:53:03.652Z,19.26
2018-04-12T08:54:03.579Z,19.29
2018-04-12T08:55:03.521Z,19.33
2018-04-12T08:56:03.440Z,19.47
2018-04-12T08:57:03.362Z,19.37
2018-04-12T08:58:03.311Z,19.49
2018-04-12T08:59:03.219Z,19.51
2018-04-12T09:00:03.147Z,19.55
2018-04-12T09:01:03.078Z,19.62
2018-04-12T09:02:03.001Z,19.70
2018-04-12T09:03:02.932Z,19.76
2018-04-12T09:04:02.856Z,19.82
2018-04-12T09:05:02.790Z,19.88
2018-04-12T09:06:02.710Z,19.99
2018-04-12T09:07:02.636Z,20.07
2018-04-12T09:08:02.570Z,20.14
2018-04-12T09:09:02.504Z,20.21
2018-04-12T09:10:02.421Z,20.31
2018-04-12T09:11:02.362Z,20.28
2018-04-12T09:12:02.277Z,20.37
2018-04-12T09:13:02.227Z,20.34
2018-04-12T09:14:02.133Z,20.47
2018-04-12T09:15:02.062Z,20.48
2018-04-12T09:16:02.034Z,20.48
2018-04-12T09:17:01.918Z,20.59
2018-04-12T09:18:01.901Z,20.55
2018-04-12T09:19:01.773Z,20.58
2018-04-12T09:20:01.701Z,20.63
2018-04-12T09:21:01.628Z,20.63
2018-04-12T09:22:01.558Z,20.67
2018-04-12T09:23:01.488Z,20.77
2018-04-12T09:24:01.414Z,20.84
2018-04-12T09:25:01.351Z,20.88
2018-04-12T09:26:01.278Z,20.95
2018-04-12T09:27:01.201Z,21.02
2018-04-12T09:28:01.130Z,20.97
2018-04-12T09:29:01.058Z,21.00
2018-04-12T09:30:00.988Z,21.09
2018-04-12T09:31:00.916Z,21.22
2018-04-12T09:32:00.844Z,21.29
2018-04-12T09:33:00.773Z,21.30
2018-04-12T09:34:00.702Z,21.45
2018-04-12T09:35:00.632Z,21.48
2018-04-12T09:36:00.559Z,21.50
2018-04-12T09:37:00.497Z,21.50
2018-04-12T09:38:00.423Z,21.50
2018-04-12T09:39:00.352Z,21.57
2018-04-12T09:40:00.274Z,21.54
2018-04-12T09:41:00.225Z,21.57
2018-04-12T09:42:00.135Z,21.62
2018-04-12T09:43:00.065Z,21.46
2018-04-12T09:43:59.992Z,21.51
2018-04-12T09:44:59.922Z,21.60
2018-04-12T09:45:59.867Z,21.48
2018-04-12T09:46:59.792Z,21.50
2018-04-12T09:47:59.711Z,21.58
2018-04-12T09:48:59.646Z,21.55
2018-04-12T09:49:59.572Z,21.48
2018-04-12T09:50:59.501Z,21.48
2018-04-12T09:51:59.498Z,21.51
2018-04-12T09:52:59.360Z,21.40
2018-04-12T09:53:59.292Z,21.33
2018-04-12T09:54:59.222Z,21.30
2018-04-12T09:55:59.146Z,21.39
2018-04-12T09:56:59.078Z,21.33
2018-04-12T09:57:59.014Z,21.33
2018-04-12T09:58:58.937Z,21.39
2018-04-12T09:59:58.906Z,21.43
2018-04-12T10:00:58.796Z,21.50
2018-04-12T10:01:58.726Z,21.58
2018-04-12T10:02:58.656Z,21.48
2018-04-12T10:03:58.587Z,21.57
2018-04-12T10:04:58.565Z,21.64
2018-04-12T10:05:58.446Z,21.69
2018-04-12T10:06:58.385Z,21.80
2018-04-12T10:07:58.308Z,21.72
2018-04-12T10:08:58.287Z,21.82
2018-04-12T10:09:58.164Z,21.98
2018-04-12T10:10:58.102Z,21.99
2018-04-12T10:11:58.025Z,22.10
2018-04-12T10:12:57.953Z,22.10
2018-04-12T10:13:57.884Z,22.07
2018-04-12T10:14:57.815Z,22.08
2018-04-12T10:15:57.745Z,22.15
2018-04-12T10:16:57.748Z,22.04
2018-04-12T10:17:57.603Z,22.11
2018-04-12T10:18:57.542Z,22.18
2018-04-12T10:19:57.470Z,22.15
2018-04-12T10:20:57.442Z,22.23
2018-04-12T10:21:57.335Z,22.35
2018-04-12T10:22:57.320Z,22.33
2018-04-12T10:23:57.186Z,22.45
2018-04-12T10:24:57.116Z,22.45
2018-04-12T10:25:57.051Z,22.66
2018-04-12T10:26:56.982Z,22.69
2018-04-12T10:27:56.924Z,22.80
2018-04-12T10:28:56.839Z,22.78
2018-04-12T10:29:56.771Z,22.80
2018-04-12T10:30:56.701Z,22.80
2018-04-12T10:31:56.630Z,22.76
2018-04-12T10:32:56.562Z,22.90
2018-04-12T10:33:56.495Z,22.91
2018-04-12T10:34:56.427Z,23.06
2018-04-12T10:35:56.358Z,23.02
2018-04-12T10:36:56.299Z,23.21
2018-04-12T10:37:56.220Z,23.24
2018-04-12T10:38:56.232Z,23.23
2018-04-12T10:39:56.079Z,23.15
2018-04-12T10:40:56.010Z,23.17
2018-04-12T10:41:55.956Z,23.15
2018-04-12T10:42:55.875Z,23.10
2018-04-12T10:43:55.803Z,23.02
2018-04-12T10:44:55.736Z,23.18
2018-04-12T10:45:55.670Z,23.18
2018-04-12T10:46:55.598Z,23.28
2018-04-12T10:47:55.585Z,23.34
2018-04-12T10:48:55.466Z,23.34
2018-04-12T10:49:55.395Z,23.37
2018-04-12T10:50:55.322Z,23.41
2018-04-12T10:51:55.310Z,23.47
2018-04-12T10:52:55.182Z,23.58
2018-04-12T10:53:55.115Z,23.62
2018-04-12T10:54:55.048Z,23.71
2018-04-12T10:55:54.989Z,23.81
2018-04-12T10:56:54.912Z,23.99
2018-04-12T10:57:54.841Z,24.02
2018-04-12T10:58:54.772Z,24.23
2018-04-12T10:59:54.703Z,24.26
2018-04-12T11:00:54.634Z,24.23
2018-04-12T11:01:54.565Z,24.20
2018-04-12T11:02:54.500Z,24.24
2018-04-12T11:03:54.431Z,24.26
2018-04-12T11:04:54.412Z,24.33
2018-04-12T11:05:54.305Z,24.21
2018-04-12T11:06:54.249Z,24.23
2018-04-12T11:07:54.238Z,24.13
2018-04-12T11:08:54.458Z,24.11
2018-04-12T11:09:54.022Z,24.05
2018-04-12T11:10:53.952Z,24.05
2018-04-12T11:11:53.903Z,24.10
2018-04-12T11:12:53.816Z,24.14
2018-04-12T11:13:53.776Z,24.17
2018-04-12T11:14:53.681Z,24.23
2018-04-12T11:15:53.613Z,24.26
2018-04-12T11:16:53.542Z,24.21
2018-04-12T11:17:53.476Z,23.99
2018-04-12T11:18:53.406Z,24.03
2018-04-12T11:19:53.349Z,24.21
2018-04-12T11:20:53.270Z,24.16
2018-04-12T11:21:53.209Z,24.24
2018-04-12T11:22:53.134Z,24.29
2018-04-12T11:23:53.070Z,24.38
2018-04-12T11:24:53.018Z,24.35
2018-04-12T11:25:52.935Z,24.35
2018-04-12T11:26:52.862Z,24.39
2018-04-12T11:27:52.794Z,24.30
2018-04-12T11:28:52.726Z,24.28
2018-04-12T11:29:52.683Z,24.39
2018-04-12T11:30:52.590Z,24.30
2018-04-12T11:31:52.522Z,24.28
2018-04-12T11:32:52.459Z,24.30
2018-04-12T11:33:52.389Z,24.30
2018-04-12T11:34:52.328Z,24.30
2018-04-12T11:35:52.252Z,24.35
2018-04-12T11:36:52.185Z,24.51
2018-04-12T11:37:52.115Z,24.45
2018-04-12T11:38:52.047Z,24.39
2018-04-12T11:39:51.993Z,24.40
2018-04-12T11:40:51.926Z,24.38
2018-04-12T11:41:51.843Z,24.36
2018-04-12T11:42:51.838Z,24.30
2018-04-12T11:43:51.709Z,24.33
2018-04-12T11:44:51.654Z,24.26
2018-04-12T11:45:51.575Z,24.20
2018-04-12T11:46:51.530Z,24.11
2018-04-12T11:47:51.455Z,23.95
2018-04-12T11:48:51.371Z,23.91
2018-04-12T11:49:51.335Z,23.88
2018-04-12T11:50:51.264Z,23.78
2018-04-12T11:51:51.209Z,23.78
2018-04-12T11:52:51.152Z,23.83
2018-04-12T11:53:51.031Z,23.76
2018-04-12T11:54:50.964Z,23.69
2018-04-12T11:55:50.921Z,23.61
2018-04-12T11:56:50.833Z,23.68
2018-04-12T11:57:50.763Z,23.63
2018-04-12T11:58:50.694Z,23.66
2018-04-12T11:59:50.625Z,23.62
2018-04-12T12:00:50.561Z,23.63
2018-04-12T12:01:50.500Z,23.55
2018-04-12T12:02:50.421Z,23.51
2018-04-12T12:03:50.350Z,23.54
2018-04-12T12:04:50.285Z,23.47
2018-04-12T12:05:50.216Z,23.46
2018-04-12T12:06:50.152Z,23.51
2018-04-12T12:07:50.080Z,23.55
2018-04-12T12:08:50.012Z,23.54
2018-04-12T12:09:49.942Z,23.46
2018-04-12T12:10:49.871Z,23.55
2018-04-12T12:11:49.805Z,23.62
2018-04-12T12:12:49.733Z,23.62
2018-04-12T12:13:49.669Z,23.66
2018-04-12T12:14:49.598Z,23.63
2018-04-12T12:15:49.529Z,23.74
2018-04-12T12:16:49.463Z,23.76
2018-04-12T12:17:49.444Z,23.93
2018-04-12T12:18:49.325Z,23.91
2018-04-12T12:19:49.259Z,23.81
2018-04-12T12:20:49.191Z,23.77
2018-04-12T12:21:49.119Z,23.74
2018-04-12T12:22:49.054Z,23.68
2018-04-12T12:23:49.082Z,23.63
2018-04-12T12:24:48.914Z,23.54
2018-04-12T12:25:48.848Z,23.51
2018-04-12T12:26:48.782Z,23.55
2018-04-12T12:27:48.717Z,23.54
2018-04-12T12:28:48.694Z,23.40
2018-04-12T12:29:48.577Z,23.25
2018-04-12T12:30:48.504Z,23.20
2018-04-12T12:31:48.436Z,23.06
2018-04-12T12:32:48.366Z,23.10
2018-04-12T12:33:48.299Z,23.09
2018-04-12T12:34:48.232Z,22.98
2018-04-12T12:35:48.172Z,22.99
2018-04-12T12:36:48.148Z,23.03
2018-04-12T12:37:48.036Z,22.98
2018-04-12T12:38:47.955Z,23.00
2018-04-12T12:39:47.884Z,22.93
2018-04-12T12:40:47.817Z,22.81
2018-04-12T12:41:47.753Z,22.87
2018-04-12T12:42:47.683Z,22.84
2018-04-12T12:43:47.633Z,22.78
2018-04-12T12:44:47.543Z,22.70
2018-04-12T12:45:47.476Z,22.65
2018-04-12T12:46:47.403Z,22.68
2018-04-12T12:47:47.343Z,22.59
2018-04-12T12:48:47.265Z,22.55
2018-04-12T12:49:47.197Z,22.65
2018-04-12T12:50:47.192Z,22.68
2018-04-12T12:51:47.075Z,22.62